Time;durP1;ratioP1;P1;durP2;ratioP2;P2;SDS_P1;SDS_P2;PMS_P1;PMS_P2;Temp;Humidity;BMP_temperature;BMP_pressure;BME280_temperature;BME280_humidity;BME280_pressure;Samples;Min_cycle;Max_cycle;Signal;HPM_P1;HPM_P2
2023/12/22 00:01:30;;;;;;;5.90;1.90;;;3.70;16.50;;;;;;9798293;30;20195;-79
2023/12/22 00:06:52;;;;;;;6.00;1.80;;;3.60;1.00;;;;;;9822365;30;20242;-80
2023/12/22 00:12:13;;;;;;;7.27;1.73;;;3.60;1.00;;;;;;9822703;30;20204;-80
2023/12/22 00:17:34;;;;;;;10.63;2.00;;;3.60;93.40;;;;;;9821823;30;20215;-80
2023/12/22 00:22:55;;;;;;;5.23;1.30;;;3.60;99.90;;;;;;9809012;30;20262;-80
2023/12/22 00:28:16;;;;;;;5.03;1.40;;;3.50;1.00;;;;;;9821134;30;20411;-79
2023/12/22 00:33:38;;;;;;;6.37;1.33;;;3.40;1.00;;;;;;9821022;30;20279;-79
2023/12/22 00:38:59;;;;;;;3.43;1.40;;;3.50;1.00;;;;;;9822450;30;20283;-85
2023/12/22 00:44:20;;;;;;;4.97;1.17;;;3.50;1.00;;;;;;9796143;30;20521;-78
2023/12/22 00:49:42;;;;;;;7.47;1.13;;;3.50;1.00;;;;;;9820868;30;20243;-80
2023/12/22 00:55:04;;;;;;;2.90;1.10;;;3.60;1.00;;;;;;9808453;30;20564;-80
2023/12/22 01:00:25;;;;;;;4.83;0.93;;;3.50;99.90;;;;;;9820636;30;20490;-80
2023/12/22 01:05:46;;;;;;;1.53;0.70;;;3.30;99.90;;;;;;9821488;30;20230;-83
2023/12/22 01:11:07;;;;;;;2.87;0.60;;;3.20;99.90;;;;;;9807063;30;20234;-86
2023/12/22 01:16:29;;;;;;;1.10;0.90;;;2.80;1.00;;;;;;9818432;30;20242;-78
2023/12/22 01:21:50;;;;;;;3.10;0.80;;;2.60;1.00;;;;;;9806944;30;20581;-79
2023/12/22 01:27:13;;;;;;;1.37;0.70;;;2.30;1.00;;;;;;9820231;30;20235;-79
2023/12/22 01:32:36;;;;;;;0.20;0.20;;;2.20;1.00;;;;;;9819101;30;20210;-80
2023/12/22 01:37:58;;;;;;;0.20;0.20;;;2.00;94.40;;;;;;9819390;30;20214;-80
2023/12/22 01:43:21;;;;;;;0.40;0.30;;;2.00;62.60;;;;;;9806596;30;20200;-79
2023/12/22 01:48:43;;;;;;;0.63;0.40;;;2.00;99.90;;;;;;9806335;30;20281;-80
2023/12/22 01:54:05;;;;;;;1.30;0.70;;;1.90;1.00;;;;;;9818391;30;20570;-79
2023/12/22 01:59:27;;;;;;;1.50;0.53;;;1.90;1.00;;;;;;9805657;30;20214;-79
2023/12/22 02:04:49;;;;;;;1.03;0.70;;;1.90;99.90;;;;;;9804656;30;20267;-79
2023/12/22 02:10:10;;;;;;;3.23;0.90;;;1.90;99.90;;;;;;9818565;30;20207;-80
2023/12/22 02:15:33;;;;;;;2.03;0.90;;;1.90;1.00;;;;;;9817925;30;20365;-80
2023/12/22 02:20:54;;;;;;;3.33;0.97;;;2.00;99.90;;;;;;9818550;30;20289;-79
2023/12/22 02:26:21;;;;;;;1.43;1.17;;;1.90;1.00;;;;;;9805374;30;20588;-79
2023/12/22 02:31:48;;;;;;;4.67;1.10;;;2.00;99.90;;;;;;9792042;30;20407;-78
2023/12/22 02:37:10;;;;;;;1.37;1.10;;;2.00;99.90;;;;;;9817403;30;20217;-80
2023/12/22 02:42:34;;;;;;;1.77;1.07;;;2.00;99.90;;;;;;9817428;30;20202;-81
2023/12/22 02:47:55;;;;;;;1.50;1.00;;;1.90;99.90;;;;;;9818262;30;20246;-79
2023/12/22 02:53:16;;;;;;;7.47;1.70;;;2.00;1.00;;;;;;9803380;30;20234;-79
2023/12/22 02:58:37;;;;;;;3.27;1.40;;;2.10;1.00;;;;;;9815651;30;20214;-79
2023/12/22 03:03:59;;;;;;;5.30;1.30;;;2.20;46.00;;;;;;9792705;30;20728;-79
2023/12/22 03:09:21;;;;;;;1.97;1.30;;;2.20;99.90;;;;;;9811282;30;20265;-78
2023/12/22 03:14:42;;;;;;;3.80;1.20;;;2.00;1.00;;;;;;9811973;30;20209;-81
2023/12/22 03:20:04;;;;;;;6.17;0.90;;;1.80;1.00;;;;;;9823254;30;20211;-81
2023/12/22 03:25:25;;;;;;;10.13;1.70;;;1.80;1.00;;;;;;9823058;30;20241;-78
2023/12/22 03:30:47;;;;;;;9.50;1.90;;;1.80;1.00;;;;;;9822812;30;20213;-79
2023/12/22 03:36:08;;;;;;;12.03;1.80;;;1.90;1.00;;;;;;9823606;30;20214;-78
2023/12/22 03:41:30;;;;;;;3.90;1.20;;;2.00;99.90;;;;;;9822937;30;20217;-79
2023/12/22 03:46:52;;;;;;;10.27;1.43;;;1.90;99.90;;;;;;9823806;30;20227;-78
2023/12/22 03:52:14;;;;;;;12.23;2.20;;;2.00;77.20;;;;;;9822117;30;20198;-79
2023/12/22 03:57:35;;;;;;;11.97;2.20;;;2.00;1.00;;;;;;9821916;30;20221;-79
2023/12/22 04:02:57;;;;;;;13.63;2.70;;;2.10;65.50;;;;;;9822368;30;20404;-84
2023/12/22 04:08:19;;;;;;;18.87;3.47;;;2.10;99.90;;;;;;9822578;30;20417;-78
2023/12/22 04:13:41;;;;;;;25.33;3.77;;;2.10;99.90;;;;;;9822465;30;20207;-79
2023/12/22 04:19:02;;;;;;;27.73;3.73;;;2.00;99.90;;;;;;9822118;30;20213;-78
2023/12/22 04:24:23;;;;;;;18.67;2.80;;;1.90;1.00;;;;;;9821689;30;20414;-78
2023/12/22 04:29:45;;;;;;;20.83;3.20;;;2.00;99.90;;;;;;9822521;30;20280;-80
2023/12/22 04:35:06;;;;;;;22.87;3.70;;;1.90;99.90;;;;;;9808706;30;20298;-80
2023/12/22 04:40:28;;;;;;;20.23;3.30;;;1.80;99.90;;;;;;9808953;30;20334;-79
2023/12/22 04:45:49;;;;;;;20.67;3.53;;;1.80;1.00;;;;;;9822149;30;20543;-79
2023/12/22 04:51:10;;;;;;;24.00;4.33;;;1.80;1.00;;;;;;9808296;30;20303;-79
2023/12/22 04:56:32;;;;;;;22.87;4.37;;;1.90;99.90;;;;;;9822030;30;20291;-79
2023/12/22 05:01:53;;;;;;;17.83;2.97;;;1.90;1.00;;;;;;9809312;30;20445;-79
2023/12/22 05:07:14;;;;;;;25.03;3.93;;;1.90;41.30;;;;;;9804726;30;20238;-78
2023/12/22 05:12:35;;;;;;;20.10;3.87;;;2.00;1.00;;;;;;9783760;30;20282;-79
2023/12/22 05:17:57;;;;;;;17.67;3.17;;;2.10;1.00;;;;;;9789865;30;20237;-78
2023/12/22 05:23:18;;;;;;;32.00;4.93;;;2.00;99.90;;;;;;9819189;30;20234;-78
2023/12/22 05:28:39;;;;;;;20.93;3.93;;;1.90;99.90;;;;;;9819626;30;20441;-83
2023/12/22 05:34:01;;;;;;;20.27;3.23;;;1.70;1.00;;;;;;9818816;30;20217;-80
2023/12/22 05:39:22;;;;;;;14.73;2.83;;;1.70;99.90;;;;;;9805697;30;20217;-79
2023/12/22 05:44:46;;;;;;;21.17;3.80;;;1.60;1.00;;;;;;9819015;30;20227;-86
2023/12/22 05:50:08;;;;;;;20.50;3.90;;;1.50;28.40;;;;;;9818420;30;20250;-81
2023/12/22 05:55:29;;;;;;;22.17;3.53;;;1.70;1.00;;;;;;9818674;30;20201;-82
2023/12/22 06:00:50;;;;;;;24.60;4.00;;;1.70;1.00;;;;;;9817986;30;20445;-78
2023/12/22 06:06:12;;;;;;;12.53;2.93;;;1.80;99.90;;;;;;9804714;30;20235;-79
2023/12/22 06:11:33;;;;;;;16.50;2.70;;;1.90;1.00;;;;;;9817872;30;20272;-85
2023/12/22 06:16:57;;;;;;;7.90;1.80;;;1.90;99.90;;;;;;9818128;30;20277;-79
2023/12/22 06:22:19;;;;;;;8.63;2.07;;;1.80;1.00;;;;;;9814306;30;20210;-78
2023/12/22 06:27:40;;;;;;;10.30;2.70;;;1.70;1.00;;;;;;9817388;30;20234;-80
2023/12/22 06:33:01;;;;;;;10.53;2.23;;;1.60;99.90;;;;;;9805308;30;20211;-84
2023/12/22 06:38:22;;;;;;;10.30;2.23;;;1.60;16.30;;;;;;9816503;30;20237;-83
2023/12/22 06:43:44;;;;;;;12.47;2.00;;;1.80;99.90;;;;;;9817498;30;20206;-79
2023/12/22 06:49:05;;;;;;;11.37;2.27;;;1.80;99.90;;;;;;9816661;30;20272;-79
2023/12/22 06:54:26;;;;;;;9.53;1.73;;;1.80;99.90;;;;;;9804701;30;20292;-79
2023/12/22 06:59:50;;;;;;;13.37;2.00;;;1.60;1.00;;;;;;9817003;30;20208;-79
2023/12/22 07:05:25;;;;;;;14.00;2.23;;;1.60;1.00;;;;;;9770782;30;20262;-78
2023/12/22 07:10:46;;;;;;;8.33;1.73;;;1.50;1.00;;;;;;9794635;30;20241;-82
2023/12/22 07:16:08;;;;;;;9.80;1.93;;;1.50;1.00;;;;;;9768060;30;20207;-79
2023/12/22 07:21:29;;;;;;;7.33;1.93;;;1.50;10.40;;;;;;9811487;30;20213;-78
2023/12/22 07:26:50;;;;;;;6.23;1.80;;;1.50;99.90;;;;;;9816678;30;20236;-82
2023/12/22 07:32:12;;;;;;;10.07;1.73;;;1.50;1.00;;;;;;9803488;30;20464;-77
2023/12/22 07:37:35;;;;;;;10.33;3.00;;;1.60;99.90;;;;;;9815669;30;20286;-78
2023/12/22 07:42:57;;;;;;;13.33;2.37;;;1.50;1.00;;;;;;9803815;30;20213;-78
2023/12/22 07:48:18;;;;;;;13.57;2.33;;;1.50;99.90;;;;;;9815815;30;20249;-81
2023/12/22 07:53:40;;;;;;;11.70;1.80;;;1.50;26.10;;;;;;9808359;30;20210;-79
2023/12/22 07:59:02;;;;;;;12.10;2.30;;;1.30;1.00;;;;;;9823128;30;20204;-81
2023/12/22 08:04:25;;;;;;;8.97;2.80;;;1.30;99.90;;;;;;9822951;30;20197;-81
2023/12/22 08:09:46;;;;;;;11.77;3.23;;;1.30;1.00;;;;;;9782685;30;20249;-78
2023/12/22 08:15:10;;;;;;;18.37;4.20;;;1.40;99.90;;;;;;9803490;30;20209;-79
2023/12/22 08:20:32;;;;;;;14.90;3.23;;;1.50;1.00;;;;;;9807319;30;20218;-78
2023/12/22 08:25:54;;;;;;;11.13;2.60;;;1.60;99.90;;;;;;9817012;30;20244;-79
2023/12/22 08:31:15;;;;;;;14.70;2.63;;;1.80;51.20;;;;;;9781123;30;20389;-78
2023/12/22 08:36:36;;;;;;;10.70;2.67;;;1.90;1.00;;;;;;9804222;30;20382;-78
2023/12/22 08:41:57;;;;;;;10.10;2.43;;;1.90;1.00;;;;;;9813854;30;20211;-78
2023/12/22 08:47:19;;;;;;;11.37;3.30;;;1.90;99.90;;;;;;9779354;30;20246;-81
2023/12/22 08:52:40;;;;;;;10.90;2.53;;;2.00;99.90;;;;;;9838992;30;20455;-78
2023/12/22 08:58:02;;;;;;;4.87;1.40;;;1.90;1.00;;;;;;9851497;30;20260;-81
2023/12/22 09:03:23;;;;;;;10.50;2.67;;;1.80;56.30;;;;;;9809620;30;20225;-86
2023/12/22 09:08:45;;;;;;;5.07;1.63;;;1.80;99.90;;;;;;9784802;30;20551;-78
2023/12/22 09:14:09;;;;;;;5.07;1.30;;;1.80;1.00;;;;;;9791200;30;20218;-80
2023/12/22 09:19:34;;;;;;;2.80;0.97;;;1.80;80.80;;;;;;9799209;30;20211;-81
2023/12/22 09:24:55;;;;;;;3.87;1.17;;;1.80;1.00;;;;;;9811248;30;20379;-80
2023/12/22 09:30:16;;;;;;;2.80;0.80;;;1.70;1.00;;;;;;9798919;30;20400;-82
2023/12/22 09:35:41;;;;;;;2.93;1.13;;;1.70;1.00;;;;;;9801657;30;20216;-78
2023/12/22 09:41:03;;;;;;;4.57;1.30;;;1.60;1.00;;;;;;9813218;30;20529;-78
2023/12/22 09:46:26;;;;;;;3.30;1.53;;;1.70;1.00;;;;;;9785218;30;20268;-79
2023/12/22 09:51:49;;;;;;;1.87;1.07;;;1.80;99.90;;;;;;9776927;30;20202;-79
2023/12/22 09:57:11;;;;;;;1.43;0.93;;;1.80;1.00;;;;;;9793837;30;20252;-77
2023/12/22 10:02:35;;;;;;;1.67;0.80;;;1.80;1.00;;;;;;9813565;30;20218;-77
2023/12/22 10:07:59;;;;;;;2.57;1.30;;;1.90;1.00;;;;;;9764832;30;20252;-78
2023/12/22 10:13:20;;;;;;;1.77;1.10;;;1.80;99.90;;;;;;9807539;30;20222;-80
2023/12/22 10:18:42;;;;;;;2.80;1.00;;;1.90;1.00;;;;;;9756292;30;20268;-83
2023/12/22 10:24:03;;;;;;;3.20;1.27;;;1.90;1.00;;;;;;9781942;30;20228;-82
2023/12/22 10:29:24;;;;;;;1.47;0.70;;;1.80;99.90;;;;;;9794312;30;20233;-78
2023/12/22 10:34:46;;;;;;;1.27;0.80;;;1.70;1.00;;;;;;9786093;30;20279;-90
2023/12/22 10:40:09;;;;;;;4.80;1.23;;;1.80;1.00;;;;;;9751580;30;20224;-80
2023/12/22 10:45:31;;;;;;;1.87;0.80;;;1.80;1.00;;;;;;9810447;30;20257;-80
2023/12/22 10:50:53;;;;;;;1.20;0.97;;;1.90;1.00;;;;;;9799559;30;20253;-82
2023/12/22 10:56:14;;;;;;;1.17;0.60;;;1.90;1.00;;;;;;9833273;30;20224;-82
2023/12/22 11:01:39;;;;;;;1.93;1.00;;;1.80;1.00;;;;;;9823949;30;20215;-81
2023/12/22 11:07:03;;;;;;;2.00;1.43;;;1.90;1.00;;;;;;9755128;30;20242;-78
2023/12/22 11:12:27;;;;;;;2.60;1.70;;;2.30;4.30;;;;;;9798347;30;20231;-81
2023/12/22 11:17:52;;;;;;;2.43;1.10;;;2.50;1.00;;;;;;9778048;30;20291;-82
2023/12/22 11:23:15;;;;;;;3.00;1.60;;;2.50;1.00;;;;;;9754427;30;20222;-80
2023/12/22 11:28:40;;;;;;;3.57;1.50;;;2.40;1.00;;;;;;9756778;30;20241;-84
2023/12/22 11:34:04;;;;;;;4.50;1.30;;;2.30;1.00;;;;;;9814146;30;20215;-82
2023/12/22 11:39:29;;;;;;;3.07;1.40;;;2.30;99.90;;;;;;9813716;30;20216;-82
2023/12/22 11:44:52;;;;;;;1.83;1.47;;;2.10;1.00;;;;;;9810249;30;20444;-82
2023/12/22 11:50:29;;;;;;;1.87;1.30;;;2.10;1.00;;;;;;9812003;30;20796;-82
2023/12/22 11:56:10;;;;;;;2.53;1.57;;;2.10;99.90;;;;;;9814589;30;20218;-82
2023/12/22 12:01:38;;;;;;;3.00;2.23;;;2.00;68.50;;;;;;9812109;30;20279;-83
2023/12/22 12:07:02;;;;;;;1.80;1.47;;;2.00;1.00;;;;;;9808064;30;20252;-81
2023/12/22 12:12:24;;;;;;;8.43;3.70;;;2.10;1.00;;;;;;9788610;30;20223;-81
2023/12/22 12:17:47;;;;;;;5.30;3.13;;;2.10;99.90;;;;;;9828231;30;20202;-81
2023/12/22 12:23:09;;;;;;;3.07;2.13;;;2.00;48.80;;;;;;9814094;30;20220;-82
2023/12/22 12:28:31;;;;;;;2.70;1.77;;;1.90;99.90;;;;;;9806554;30;20228;-81
2023/12/22 12:33:54;;;;;;;4.07;1.77;;;1.80;1.00;;;;;;9805889;30;20237;-81
2023/12/22 12:39:17;;;;;;;2.33;1.27;;;1.80;1.00;;;;;;9795754;30;20289;-81
2023/12/22 12:44:39;;;;;;;8.33;3.27;;;1.80;1.00;;;;;;9792161;30;20212;-81
2023/12/22 12:50:01;;;;;;;6.73;3.43;;;1.80;1.00;;;;;;9800784;30;20252;-81
2023/12/22 12:55:23;;;;;;;4.87;2.50;;;1.70;1.00;;;;;;9801902;30;20213;-81
2023/12/22 13:00:45;;;;;;;2.90;2.23;;;1.70;1.00;;;;;;9817087;30;20297;-80
2023/12/22 13:06:08;;;;;;;1.70;1.20;;;1.70;99.90;;;;;;9833953;30;20238;-82
2023/12/22 13:11:31;;;;;;;3.43;1.57;;;1.80;1.00;;;;;;9813999;30;20209;-82
2023/12/22 13:16:56;;;;;;;10.07;4.87;;;1.80;1.00;;;;;;9807042;30;20211;-82
2023/12/22 13:22:18;;;;;;;4.07;2.57;;;1.70;1.00;;;;;;9822278;30;20500;-84
2023/12/22 13:27:50;;;;;;;6.67;2.23;;;1.80;1.00;;;;;;9811054;30;20312;-83
2023/12/22 13:33:11;;;;;;;9.73;4.53;;;1.80;1.00;;;;;;9822767;30;20232;-82
2023/12/22 13:38:33;;;;;;;5.30;2.63;;;1.80;1.00;;;;;;9815810;30;20308;-80
2023/12/22 13:43:56;;;;;;;4.30;2.00;;;1.80;1.00;;;;;;9818190;30;20247;-82
2023/12/22 13:49:17;;;;;;;5.13;2.70;;;1.90;99.90;;;;;;9810875;30;20349;-81
2023/12/22 13:54:38;;;;;;;4.10;2.23;;;2.00;99.90;;;;;;9815265;30;20210;-82
2023/12/22 14:00:00;;;;;;;3.27;2.13;;;1.90;1.00;;;;;;9816601;30;20296;-81
2023/12/22 14:05:23;;;;;;;4.97;2.00;;;1.90;99.90;;;;;;9795081;30;20213;-84
2023/12/22 14:10:48;;;;;;;2.50;1.63;;;1.90;1.00;;;;;;9825241;30;20386;-81
2023/12/22 14:16:11;;;;;;;3.50;1.80;;;1.90;34.30;;;;;;9806171;30;20504;-83
2023/12/22 14:21:32;;;;;;;4.67;2.10;;;1.90;52.90;;;;;;9835142;30;20270;-80
2023/12/22 14:26:57;;;;;;;6.03;2.10;;;1.90;1.00;;;;;;9824754;30;20237;-84
2023/12/22 14:32:21;;;;;;;3.70;1.93;;;1.80;1.00;;;;;;9806866;30;20290;-80
2023/12/22 14:37:43;;;;;;;2.63;1.60;;;1.90;99.90;;;;;;9804475;30;20250;-83
2023/12/22 14:43:05;;;;;;;4.50;2.43;;;1.80;99.90;;;;;;9818508;30;20407;-81
2023/12/22 14:48:27;;;;;;;2.57;1.40;;;1.80;1.00;;;;;;9809101;30;20248;-81
2023/12/22 14:53:48;;;;;;;3.67;2.03;;;1.70;1.00;;;;;;9801706;30;20288;-83
2023/12/22 14:59:14;;;;;;;6.13;3.00;;;1.60;99.90;;;;;;9826280;30;20260;-80
2023/12/22 15:04:35;;;;;;;4.73;2.57;;;1.70;99.90;;;;;;9828390;30;20529;-78
2023/12/22 15:09:58;;;;;;;9.27;3.73;;;1.60;99.90;;;;;;9828431;30;20265;-78
2023/12/22 15:15:20;;;;;;;8.13;3.00;;;1.70;99.90;;;;;;9820158;30;20238;-79
2023/12/22 15:20:41;;;;;;;8.67;4.03;;;1.70;1.00;;;;;;9804257;30;20210;-82
2023/12/22 15:26:02;;;;;;;10.33;3.43;;;1.80;99.90;;;;;;9836963;30;20249;-79
2023/12/22 15:31:24;;;;;;;13.43;4.47;;;2.00;99.90;;;;;;9830048;30;20363;-79
2023/12/22 15:36:46;;;;;;;12.97;4.50;;;2.00;99.90;;;;;;9832387;30;20593;-79
2023/12/22 15:42:07;;;;;;;13.20;4.07;;;2.10;1.00;;;;;;9823828;30;20294;-82
2023/12/22 15:47:28;;;;;;;6.80;3.47;;;2.10;44.10;;;;;;9826482;30;20257;-81
2023/12/22 15:52:49;;;;;;;6.33;3.53;;;2.10;1.00;;;;;;9813751;30;20874;-80
2023/12/22 15:58:11;;;;;;;15.30;5.07;;;2.10;1.00;;;;;;9820113;30;20224;-85
2023/12/22 16:03:32;;;;;;;10.83;3.60;;;2.00;49.70;;;;;;9812974;30;20278;-81
2023/12/22 16:08:54;;;;;;;11.03;4.60;;;2.00;1.00;;;;;;9809420;30;20425;-87
2023/12/22 16:14:16;;;;;;;13.97;4.17;;;2.00;99.90;;;;;;9816187;30;20218;-78
2023/12/22 16:19:39;;;;;;;7.70;2.87;;;2.00;1.00;;;;;;9802884;30;20206;-80
2023/12/22 16:25:00;;;;;;;12.73;4.00;;;1.90;1.00;;;;;;9806848;30;20207;-77
2023/12/22 16:30:21;;;;;;;10.67;4.43;;;1.90;56.00;;;;;;9820781;30;20229;-85
2023/12/22 16:35:43;;;;;;;13.23;5.23;;;1.90;99.90;;;;;;9795735;30;20600;-79
2023/12/22 16:41:06;;;;;;;9.87;3.57;;;2.00;99.90;;;;;;9818441;30;20209;-81
2023/12/22 16:46:27;;;;;;;9.37;3.40;;;2.00;99.90;;;;;;9819517;30;20293;-81
2023/12/22 16:51:49;;;;;;;6.03;2.70;;;1.90;99.90;;;;;;9819362;30;20214;-80
2023/12/22 16:57:11;;;;;;;6.77;3.17;;;1.90;1.00;;;;;;9821968;30;20203;-83
2023/12/22 17:02:33;;;;;;;9.20;3.80;;;1.80;1.00;;;;;;9821749;30;20519;-85
2023/12/22 17:07:54;;;;;;;6.47;3.00;;;1.70;1.00;;;;;;9795843;30;20242;-82
2023/12/22 17:13:16;;;;;;;5.30;2.40;;;1.70;1.00;;;;;;9807160;30;20396;-80
2023/12/22 17:18:39;;;;;;;5.43;2.30;;;1.80;1.00;;;;;;9820956;30;20206;-80
2023/12/22 17:23:59;;;;;;;6.03;2.97;;;1.70;1.00;;;;;;9805805;30;20226;-80
2023/12/22 17:29:21;;;;;;;6.03;2.50;;;1.70;1.00;;;;;;9820387;30;20556;-86
2023/12/22 17:34:42;;;;;;;9.10;3.40;;;1.80;27.00;;;;;;9807396;30;20256;-85
2023/12/22 17:40:04;;;;;;;9.40;3.00;;;1.80;93.00;;;;;;9820122;30;20215;-85
2023/12/22 17:45:26;;;;;;;8.23;3.47;;;1.70;99.90;;;;;;9819920;30;20427;-82
2023/12/22 17:50:47;;;;;;;7.67;3.27;;;1.70;18.50;;;;;;9818905;30;20284;-80
2023/12/22 17:56:09;;;;;;;9.90;3.27;;;1.70;1.00;;;;;;9817846;30;20240;-82
2023/12/22 18:01:30;;;;;;;12.63;3.50;;;1.70;99.90;;;;;;9819756;30;20207;-83
2023/12/22 18:06:51;;;;;;;10.03;3.80;;;1.80;1.00;;;;;;9793811;30;20239;-79
2023/12/22 18:12:12;;;;;;;12.00;4.30;;;1.80;99.90;;;;;;9817674;30;20576;-83
2023/12/22 18:17:33;;;;;;;8.10;3.63;;;1.70;1.00;;;;;;9818193;30;20213;-87
2023/12/22 18:22:54;;;;;;;11.43;3.77;;;1.70;1.00;;;;;;9818149;30;20286;-79
2023/12/22 18:28:16;;;;;;;13.53;4.10;;;1.60;1.00;;;;;;9792576;30;20468;-83
2023/12/22 18:33:37;;;;;;;8.03;3.90;;;1.70;1.00;;;;;;9816554;30;20199;-84
2023/12/22 18:38:58;;;;;;;11.70;3.70;;;1.70;99.90;;;;;;9816113;30;20217;-83
2023/12/22 18:44:20;;;;;;;11.10;3.10;;;1.80;45.40;;;;;;9804292;30;20414;-83
2023/12/22 18:49:41;;;;;;;5.80;3.23;;;1.80;1.00;;;;;;9802722;30;20258;-81
2023/12/22 18:55:03;;;;;;;7.10;3.07;;;1.80;99.90;;;;;;9815988;30;20208;-82
2023/12/22 19:00:24;;;;;;;11.50;3.37;;;1.80;99.90;;;;;;9817536;30;20556;-80
2023/12/22 19:05:45;;;;;;;7.23;3.07;;;1.80;99.90;;;;;;9803474;30;20291;-81
2023/12/22 19:11:07;;;;;;;10.00;3.80;;;1.80;1.00;;;;;;9803480;30;20540;-84
2023/12/22 19:16:28;;;;;;;10.67;3.50;;;1.70;1.00;;;;;;9802354;30;20221;-81
2023/12/22 19:21:49;;;;;;;10.73;3.63;;;1.80;1.00;;;;;;9817872;30;20225;-82
2023/12/22 19:27:10;;;;;;;9.23;3.93;;;1.80;1.00;;;;;;9815593;30;20246;-80
2023/12/22 19:32:32;;;;;;;7.83;2.90;;;1.90;1.00;;;;;;9787146;30;20210;-84
2023/12/22 19:37:53;;;;;;;21.63;6.60;;;1.80;1.00;;;;;;9815320;30;20560;-80
2023/12/22 19:43:15;;;;;;;12.07;4.33;;;1.70;99.90;;;;;;9799872;30;20211;-82
2023/12/22 19:48:36;;;;;;;8.70;3.53;;;1.60;99.90;;;;;;9806938;30;20622;-82
2023/12/22 19:53:57;;;;;;;6.00;3.60;;;1.50;1.00;;;;;;9809334;30;20206;-81
2023/12/22 19:59:18;;;;;;;4.37;2.63;;;1.60;99.90;;;;;;9823510;30;20251;-80
2023/12/22 20:04:39;;;;;;;8.47;4.10;;;1.60;99.90;;;;;;9797398;30;20574;-87
2023/12/22 20:10:03;;;;;;;7.50;3.37;;;1.60;99.90;;;;;;9822046;30;20257;-85
2023/12/22 20:15:26;;;;;;;6.40;2.73;;;1.60;99.90;;;;;;9809911;30;20214;-88
2023/12/22 20:20:47;;;;;;;8.17;3.47;;;1.60;99.90;;;;;;9821992;30;20233;-83
2023/12/22 20:26:08;;;;;;;5.43;2.90;;;1.70;99.90;;;;;;9822094;30;20206;-83
2023/12/22 20:31:31;;;;;;;5.30;3.30;;;1.60;99.90;;;;;;9807513;30;20247;-83
2023/12/22 20:36:52;;;;;;;7.27;3.47;;;1.70;99.90;;;;;;9822150;30;20284;-86
2023/12/22 20:42:13;;;;;;;8.40;3.33;;;1.80;60.00;;;;;;9808613;30;20210;-81
2023/12/22 20:47:35;;;;;;;7.00;2.67;;;1.80;99.90;;;;;;9821398;30;20296;-81
2023/12/22 20:52:56;;;;;;;7.70;2.67;;;1.70;1.00;;;;;;9820763;30;20393;-86
2023/12/22 20:58:17;;;;;;;7.83;2.63;;;1.70;1.00;;;;;;9818181;30;20237;-80
2023/12/22 21:03:38;;;;;;;6.10;3.10;;;1.60;1.00;;;;;;9819663;30;20218;-82
2023/12/22 21:09:00;;;;;;;7.27;3.00;;;1.70;1.00;;;;;;9808120;30;20233;-81
2023/12/22 21:14:21;;;;;;;8.77;2.90;;;1.70;1.00;;;;;;9789512;30;20290;-82
2023/12/22 21:19:43;;;;;;;10.93;2.57;;;1.60;1.00;;;;;;9798814;30;20210;-82
2023/12/22 21:25:04;;;;;;;8.03;2.53;;;1.60;1.00;;;;;;9785598;30;20501;-81
2023/12/22 21:30:28;;;;;;;5.93;3.07;;;1.60;99.90;;;;;;9785059;30;20262;-79
2023/12/22 21:35:49;;;;;;;7.20;3.03;;;1.60;1.00;;;;;;9770581;30;20218;-81
2023/12/22 21:41:15;;;;;;;5.50;2.20;;;1.50;99.90;;;;;;9770647;30;20233;-81
2023/12/22 21:46:43;;;;;;;10.73;2.70;;;1.50;99.90;;;;;;9800838;30;20235;-80
2023/12/22 21:52:05;;;;;;;5.73;2.63;;;1.50;1.00;;;;;;9805518;30;20245;-81
2023/12/22 21:57:27;;;;;;;5.97;2.90;;;1.60;35.50;;;;;;9818722;30;20205;-80
2023/12/22 22:02:48;;;;;;;4.50;2.33;;;1.50;1.00;;;;;;9806034;30;20496;-82
2023/12/22 22:08:10;;;;;;;4.43;2.13;;;1.60;1.00;;;;;;9819533;30;20481;-81
2023/12/22 22:13:31;;;;;;;7.00;2.40;;;1.70;1.00;;;;;;9805223;30;20289;-79
2023/12/22 22:18:52;;;;;;;6.33;2.80;;;1.60;1.00;;;;;;9805018;30;20536;-81
2023/12/22 22:24:15;;;;;;;4.30;2.23;;;1.60;1.00;;;;;;9819369;30;20204;-81
2023/12/22 22:29:36;;;;;;;7.37;2.60;;;1.60;99.90;;;;;;9817616;30;20495;-81
2023/12/22 22:34:57;;;;;;;5.93;3.03;;;1.60;99.90;;;;;;9817984;30;20198;-82
2023/12/22 22:40:18;;;;;;;3.80;2.27;;;1.60;1.00;;;;;;9805581;30;20213;-80
2023/12/22 22:45:41;;;;;;;11.67;2.43;;;1.50;1.00;;;;;;9817745;30;20447;-79
2023/12/22 22:51:02;;;;;;;8.30;2.80;;;1.50;1.00;;;;;;9816220;30;20271;-79
2023/12/22 22:56:23;;;;;;;6.77;2.43;;;1.50;1.00;;;;;;9818698;30;20200;-78
2023/12/22 23:01:49;;;;;;;5.93;2.10;;;1.50;1.00;;;;;;9817382;30;20214;-80
2023/12/22 23:07:11;;;;;;;6.00;2.43;;;1.60;1.00;;;;;;9817650;30;20221;-79
2023/12/22 23:12:32;;;;;;;6.40;2.30;;;1.60;1.00;;;;;;9805044;30;20229;-78
2023/12/22 23:17:53;;;;;;;5.70;2.60;;;1.60;1.00;;;;;;9781706;30;20282;-81
2023/12/22 23:23:15;;;;;;;7.43;2.40;;;1.60;1.00;;;;;;9818544;30;20560;-80
2023/12/22 23:28:37;;;;;;;9.10;2.40;;;1.60;99.90;;;;;;9823645;30;20246;-78
2023/12/22 23:33:58;;;;;;;5.57;2.00;;;1.60;99.90;;;;;;9823896;30;20209;-79
2023/12/22 23:39:20;;;;;;;3.77;1.97;;;1.70;99.90;;;;;;9823578;30;20210;-80
2023/12/22 23:44:43;;;;;;;4.83;1.97;;;1.60;99.90;;;;;;9810671;30;20288;-78
2023/12/22 23:50:04;;;;;;;6.90;2.10;;;1.50;99.90;;;;;;9807627;30;20247;-80
2023/12/22 23:55:26;;;;;;;7.33;2.00;;;1.60;99.90;;;;;;9822902;30;20208;-79
